sensor_id;sensor_type;location;lat;lon;timestamp;P1;durP1;ratioP1;P2;durP2;ratioP2
57389;SDS011;43217;52.694;6.214;2022-08-05T00:00:30;5.03;;;2.92;;
57389;SDS011;43217;52.694;6.214;2022-08-05T00:02:56;5.38;;;3.60;;
57389;SDS011;43217;52.694;6.214;2022-08-05T00:05:21;6.63;;;3.05;;
57389;SDS011;43217;52.694;6.214;2022-08-05T00:07:47;5.20;;;3.25;;
57389;SDS011;43217;52.694;6.214;2022-08-05T00:10:13;4.47;;;2.90;;
57389;SDS011;43217;52.694;6.214;2022-08-05T00:12:38;5.43;;;3.20;;
57389;SDS011;43217;52.694;6.214;2022-08-05T00:15:04;6.15;;;3.35;;
57389;SDS011;43217;52.694;6.214;2022-08-05T00:17:30;5.05;;;3.03;;
57389;SDS011;43217;52.694;6.214;2022-08-05T00:19:56;4.57;;;3.25;;
57389;SDS011;43217;52.694;6.214;2022-08-05T00:22:21;4.55;;;3.13;;
57389;SDS011;43217;52.694;6.214;2022-08-05T00:24:47;4.53;;;2.78;;
57389;SDS011;43217;52.694;6.214;2022-08-05T00:27:12;4.05;;;2.95;;
57389;SDS011;43217;52.694;6.214;2022-08-05T00:29:38;5.93;;;4.20;;
57389;SDS011;43217;52.694;6.214;2022-08-05T00:32:04;6.18;;;3.10;;
57389;SDS011;43217;52.694;6.214;2022-08-05T00:34:30;6.77;;;3.13;;
57389;SDS011;43217;52.694;6.214;2022-08-05T00:36:56;6.47;;;3.28;;
57389;SDS011;43217;52.694;6.214;2022-08-05T00:39:22;5.53;;;3.55;;
57389;SDS011;43217;52.694;6.214;2022-08-05T00:41:47;5.68;;;3.30;;
57389;SDS011;43217;52.694;6.214;2022-08-05T00:44:13;5.00;;;3.40;;
57389;SDS011;43217;52.694;6.214;2022-08-05T00:46:39;7.40;;;3.58;;
57389;SDS011;43217;52.694;6.214;2022-08-05T00:49:04;7.32;;;3.53;;
57389;SDS011;43217;52.694;6.214;2022-08-05T00:51:30;4.97;;;3.50;;
57389;SDS011;43217;52.694;6.214;2022-08-05T00:53:55;6.82;;;3.85;;
57389;SDS011;43217;52.694;6.214;2022-08-05T00:56:21;6.25;;;3.67;;
57389;SDS011;43217;52.694;6.214;2022-08-05T00:58:47;6.47;;;3.50;;
57389;SDS011;43217;52.694;6.214;2022-08-05T01:01:12;4.82;;;3.10;;
57389;SDS011;43217;52.694;6.214;2022-08-05T01:03:40;5.07;;;3.20;;
57389;SDS011;43217;52.694;6.214;2022-08-05T01:06:06;4.47;;;3.30;;
57389;SDS011;43217;52.694;6.214;2022-08-05T01:08:32;5.57;;;3.45;;
57389;SDS011;43217;52.694;6.214;2022-08-05T01:11:00;7.20;;;3.95;;
57389;SDS011;43217;52.694;6.214;2022-08-05T01:16:47;6.72;;;3.33;;
57389;SDS011;43217;52.694;6.214;2022-08-05T01:22:06;5.03;;;3.45;;
57389;SDS011;43217;52.694;6.214;2022-08-05T01:24:59;5.88;;;3.40;;
57389;SDS011;43217;52.694;6.214;2022-08-05T01:30:39;4.50;;;2.90;;
57389;SDS011;43217;52.694;6.214;2022-08-05T01:33:15;3.40;;;2.65;;
57389;SDS011;43217;52.694;6.214;2022-08-05T01:35:42;4.78;;;2.85;;
57389;SDS011;43217;52.694;6.214;2022-08-05T01:38:11;3.83;;;2.90;;
57389;SDS011;43217;52.694;6.214;2022-08-05T01:40:39;3.38;;;2.55;;
57389;SDS011;43217;52.694;6.214;2022-08-05T01:43:04;3.72;;;2.60;;
57389;SDS011;43217;52.694;6.214;2022-08-05T01:45:33;5.40;;;2.50;;
57389;SDS011;43217;52.694;6.214;2022-08-05T01:48:00;4.95;;;2.95;;
57389;SDS011;43217;52.694;6.214;2022-08-05T01:50:28;4.97;;;2.83;;
57389;SDS011;43217;52.694;6.214;2022-08-05T01:52:59;3.55;;;2.70;;
57389;SDS011;43217;52.694;6.214;2022-08-05T01:55:27;4.45;;;2.47;;
57389;SDS011;43217;52.694;6.214;2022-08-05T01:57:55;6.97;;;2.92;;
57389;SDS011;43217;52.694;6.214;2022-08-05T02:00:22;5.00;;;3.10;;
57389;SDS011;43217;52.694;6.214;2022-08-05T02:02:59;3.90;;;2.90;;
57389;SDS011;43217;52.694;6.214;2022-08-05T02:05:31;4.35;;;3.38;;
57389;SDS011;43217;52.694;6.214;2022-08-05T02:08:00;4.53;;;3.10;;
57389;SDS011;43217;52.694;6.214;2022-08-05T02:10:27;4.28;;;2.88;;
57389;SDS011;43217;52.694;6.214;2022-08-05T02:13:00;5.60;;;3.50;;
57389;SDS011;43217;52.694;6.214;2022-08-05T02:15:35;5.50;;;2.70;;
57389;SDS011;43217;52.694;6.214;2022-08-05T02:18:10;5.28;;;3.40;;
57389;SDS011;43217;52.694;6.214;2022-08-05T02:20:48;6.53;;;3.33;;
57389;SDS011;43217;52.694;6.214;2022-08-05T02:23:18;3.90;;;3.13;;
57389;SDS011;43217;52.694;6.214;2022-08-05T02:25:48;6.47;;;3.10;;
57389;SDS011;43217;52.694;6.214;2022-08-05T02:28:18;4.05;;;3.10;;
57389;SDS011;43217;52.694;6.214;2022-08-05T02:31:01;5.90;;;3.53;;
57389;SDS011;43217;52.694;6.214;2022-08-05T02:33:31;4.95;;;2.92;;
57389;SDS011;43217;52.694;6.214;2022-08-05T02:36:02;4.50;;;2.70;;
57389;SDS011;43217;52.694;6.214;2022-08-05T02:38:29;4.68;;;2.72;;
57389;SDS011;43217;52.694;6.214;2022-08-05T02:40:56;5.43;;;2.75;;
57389;SDS011;43217;52.694;6.214;2022-08-05T02:43:23;5.45;;;3.05;;
57389;SDS011;43217;52.694;6.214;2022-08-05T02:45:50;3.38;;;2.70;;
57389;SDS011;43217;52.694;6.214;2022-08-05T02:48:17;4.85;;;2.75;;
57389;SDS011;43217;52.694;6.214;2022-08-05T02:50:43;4.72;;;3.00;;
57389;SDS011;43217;52.694;6.214;2022-08-05T02:53:12;5.38;;;3.55;;
57389;SDS011;43217;52.694;6.214;2022-08-05T02:55:39;3.92;;;2.80;;
57389;SDS011;43217;52.694;6.214;2022-08-05T02:58:05;3.50;;;2.60;;
57389;SDS011;43217;52.694;6.214;2022-08-05T03:00:30;4.38;;;2.60;;
57389;SDS011;43217;52.694;6.214;2022-08-05T03:02:59;4.53;;;2.88;;
57389;SDS011;43217;52.694;6.214;2022-08-05T03:05:26;5.03;;;2.67;;
57389;SDS011;43217;52.694;6.214;2022-08-05T03:07:52;4.10;;;2.73;;
57389;SDS011;43217;52.694;6.214;2022-08-05T03:10:18;5.07;;;2.92;;
57389;SDS011;43217;52.694;6.214;2022-08-05T03:12:45;4.07;;;2.90;;
57389;SDS011;43217;52.694;6.214;2022-08-05T03:15:11;5.32;;;3.30;;
57389;SDS011;43217;52.694;6.214;2022-08-05T03:17:37;6.45;;;3.00;;
57389;SDS011;43217;52.694;6.214;2022-08-05T03:20:03;4.40;;;2.58;;
57389;SDS011;43217;52.694;6.214;2022-08-05T03:22:29;5.78;;;3.50;;
57389;SDS011;43217;52.694;6.214;2022-08-05T03:24:55;5.00;;;3.42;;
57389;SDS011;43217;52.694;6.214;2022-08-05T03:27:21;3.33;;;2.65;;
57389;SDS011;43217;52.694;6.214;2022-08-05T03:29:47;3.75;;;3.00;;
57389;SDS011;43217;52.694;6.214;2022-08-05T03:32:13;6.43;;;2.83;;
57389;SDS011;43217;52.694;6.214;2022-08-05T03:34:40;5.05;;;2.85;;
57389;SDS011;43217;52.694;6.214;2022-08-05T03:37:07;3.60;;;3.30;;
57389;SDS011;43217;52.694;6.214;2022-08-05T03:39:32;6.05;;;3.67;;
57389;SDS011;43217;52.694;6.214;2022-08-05T03:41:58;4.45;;;3.25;;
57389;SDS011;43217;52.694;6.214;2022-08-05T03:44:24;5.65;;;3.30;;
57389;SDS011;43217;52.694;6.214;2022-08-05T03:46:50;7.35;;;3.60;;
57389;SDS011;43217;52.694;6.214;2022-08-05T03:49:16;7.35;;;3.55;;
57389;SDS011;43217;52.694;6.214;2022-08-05T03:51:42;4.68;;;3.35;;
57389;SDS011;43217;52.694;6.214;2022-08-05T03:54:22;4.43;;;3.42;;
57389;SDS011;43217;52.694;6.214;2022-08-05T03:56:58;4.68;;;3.92;;
57389;SDS011;43217;52.694;6.214;2022-08-05T03:59:27;4.13;;;3.83;;
57389;SDS011;43217;52.694;6.214;2022-08-05T04:01:57;4.68;;;3.33;;
57389;SDS011;43217;52.694;6.214;2022-08-05T04:04:23;3.80;;;3.10;;
57389;SDS011;43217;52.694;6.214;2022-08-05T04:09:17;6.45;;;3.50;;
57389;SDS011;43217;52.694;6.214;2022-08-05T04:11:43;3.70;;;3.03;;
57389;SDS011;43217;52.694;6.214;2022-08-05T04:14:09;5.45;;;3.90;;
57389;SDS011;43217;52.694;6.214;2022-08-05T04:16:35;4.03;;;3.40;;
57389;SDS011;43217;52.694;6.214;2022-08-05T04:19:01;4.70;;;3.40;;
57389;SDS011;43217;52.694;6.214;2022-08-05T04:21:28;4.53;;;3.40;;
57389;SDS011;43217;52.694;6.214;2022-08-05T04:23:54;3.88;;;3.20;;
57389;SDS011;43217;52.694;6.214;2022-08-05T04:26:20;3.78;;;3.33;;
57389;SDS011;43217;52.694;6.214;2022-08-05T04:28:45;6.30;;;4.03;;
57389;SDS011;43217;52.694;6.214;2022-08-05T04:31:11;5.20;;;3.83;;
57389;SDS011;43217;52.694;6.214;2022-08-05T04:33:37;6.15;;;3.50;;
57389;SDS011;43217;52.694;6.214;2022-08-05T04:36:02;3.70;;;3.40;;
57389;SDS011;43217;52.694;6.214;2022-08-05T04:38:28;7.57;;;3.70;;
57389;SDS011;43217;52.694;6.214;2022-08-05T04:40:53;4.00;;;3.45;;
57389;SDS011;43217;52.694;6.214;2022-08-05T04:43:19;5.63;;;3.70;;
57389;SDS011;43217;52.694;6.214;2022-08-05T04:45:45;5.53;;;3.30;;
57389;SDS011;43217;52.694;6.214;2022-08-05T04:48:11;4.28;;;3.47;;
57389;SDS011;43217;52.694;6.214;2022-08-05T04:50:43;7.00;;;3.40;;
57389;SDS011;43217;52.694;6.214;2022-08-05T04:53:10;3.65;;;3.28;;
57389;SDS011;43217;52.694;6.214;2022-08-05T04:55:37;5.13;;;3.45;;
57389;SDS011;43217;52.694;6.214;2022-08-05T04:58:03;3.50;;;3.20;;
57389;SDS011;43217;52.694;6.214;2022-08-05T05:00:34;4.45;;;3.20;;
57389;SDS011;43217;52.694;6.214;2022-08-05T05:03:00;4.43;;;3.20;;
57389;SDS011;43217;52.694;6.214;2022-08-05T05:05:26;4.53;;;3.20;;
57389;SDS011;43217;52.694;6.214;2022-08-05T05:08:14;4.70;;;3.63;;
57389;SDS011;43217;52.694;6.214;2022-08-05T05:13:06;5.75;;;3.20;;
57389;SDS011;43217;52.694;6.214;2022-08-05T05:17:59;3.90;;;3.50;;
57389;SDS011;43217;52.694;6.214;2022-08-05T05:20:24;4.47;;;3.60;;
57389;SDS011;43217;52.694;6.214;2022-08-05T05:22:50;5.60;;;3.60;;
57389;SDS011;43217;52.694;6.214;2022-08-05T05:25:15;4.20;;;3.30;;
57389;SDS011;43217;52.694;6.214;2022-08-05T05:27:41;3.92;;;3.13;;
57389;SDS011;43217;52.694;6.214;2022-08-05T05:30:07;3.78;;;3.20;;
57389;SDS011;43217;52.694;6.214;2022-08-05T05:32:33;6.82;;;3.20;;
57389;SDS011;43217;52.694;6.214;2022-08-05T05:34:58;3.50;;;3.20;;
57389;SDS011;43217;52.694;6.214;2022-08-05T05:37:24;4.13;;;2.88;;
57389;SDS011;43217;52.694;6.214;2022-08-05T05:39:49;3.55;;;2.90;;
57389;SDS011;43217;52.694;6.214;2022-08-05T05:42:15;4.35;;;3.05;;
57389;SDS011;43217;52.694;6.214;2022-08-05T05:44:41;4.25;;;3.10;;
57389;SDS011;43217;52.694;6.214;2022-08-05T05:47:06;4.55;;;3.10;;
57389;SDS011;43217;52.694;6.214;2022-08-05T05:49:32;4.43;;;3.20;;
57389;SDS011;43217;52.694;6.214;2022-08-05T05:51:58;4.53;;;2.65;;
57389;SDS011;43217;52.694;6.214;2022-08-05T05:54:23;6.05;;;3.30;;
57389;SDS011;43217;52.694;6.214;2022-08-05T05:56:50;4.68;;;3.20;;
57389;SDS011;43217;52.694;6.214;2022-08-05T05:59:16;5.03;;;3.05;;
57389;SDS011;43217;52.694;6.214;2022-08-05T06:01:41;3.00;;;2.80;;
57389;SDS011;43217;52.694;6.214;2022-08-05T06:04:08;4.07;;;3.03;;
57389;SDS011;43217;52.694;6.214;2022-08-05T06:06:35;3.80;;;2.60;;
57389;SDS011;43217;52.694;6.214;2022-08-05T06:09:02;3.40;;;3.10;;
57389;SDS011;43217;52.694;6.214;2022-08-05T06:11:29;4.05;;;2.72;;
57389;SDS011;43217;52.694;6.214;2022-08-05T06:13:55;2.83;;;2.63;;
57389;SDS011;43217;52.694;6.214;2022-08-05T06:16:20;3.08;;;2.72;;
57389;SDS011;43217;52.694;6.214;2022-08-05T06:18:46;3.17;;;2.88;;
57389;SDS011;43217;52.694;6.214;2022-08-05T06:21:12;4.93;;;3.00;;
57389;SDS011;43217;52.694;6.214;2022-08-05T06:23:37;3.10;;;2.50;;
57389;SDS011;43217;52.694;6.214;2022-08-05T06:26:03;3.33;;;2.80;;
57389;SDS011;43217;52.694;6.214;2022-08-05T06:28:28;3.50;;;3.00;;
57389;SDS011;43217;52.694;6.214;2022-08-05T06:30:54;4.07;;;2.90;;
57389;SDS011;43217;52.694;6.214;2022-08-05T06:33:20;3.17;;;2.85;;
57389;SDS011;43217;52.694;6.214;2022-08-05T06:35:45;3.03;;;2.78;;
57389;SDS011;43217;52.694;6.214;2022-08-05T06:38:11;3.55;;;2.35;;
57389;SDS011;43217;52.694;6.214;2022-08-05T06:40:36;3.58;;;2.50;;
57389;SDS011;43217;52.694;6.214;2022-08-05T06:43:02;4.28;;;2.40;;
57389;SDS011;43217;52.694;6.214;2022-08-05T06:45:27;3.03;;;2.03;;
57389;SDS011;43217;52.694;6.214;2022-08-05T06:47:53;3.13;;;1.88;;
57389;SDS011;43217;52.694;6.214;2022-08-05T06:50:19;2.20;;;1.50;;
57389;SDS011;43217;52.694;6.214;2022-08-05T06:52:44;3.90;;;1.60;;
57389;SDS011;43217;52.694;6.214;2022-08-05T06:55:10;2.50;;;1.30;;
57389;SDS011;43217;52.694;6.214;2022-08-05T06:57:35;2.53;;;1.27;;
57389;SDS011;43217;52.694;6.214;2022-08-05T07:00:01;3.15;;;1.58;;
57389;SDS011;43217;52.694;6.214;2022-08-05T07:02:27;1.77;;;1.17;;
57389;SDS011;43217;52.694;6.214;2022-08-05T07:04:53;2.27;;;1.60;;
57389;SDS011;43217;52.694;6.214;2022-08-05T07:07:19;2.28;;;1.15;;
57389;SDS011;43217;52.694;6.214;2022-08-05T07:09:45;3.00;;;1.15;;
57389;SDS011;43217;52.694;6.214;2022-08-05T07:12:10;3.15;;;1.27;;
57389;SDS011;43217;52.694;6.214;2022-08-05T07:14:56;2.33;;;1.00;;
57389;SDS011;43217;52.694;6.214;2022-08-05T07:17:40;3.22;;;1.17;;
57389;SDS011;43217;52.694;6.214;2022-08-05T07:20:06;2.13;;;1.40;;
57389;SDS011;43217;52.694;6.214;2022-08-05T07:22:32;2.15;;;1.27;;
57389;SDS011;43217;52.694;6.214;2022-08-05T07:24:57;2.10;;;1.40;;
57389;SDS011;43217;52.694;6.214;2022-08-05T07:27:24;1.40;;;1.20;;
57389;SDS011;43217;52.694;6.214;2022-08-05T07:29:49;1.38;;;1.10;;
57389;SDS011;43217;52.694;6.214;2022-08-05T07:32:15;2.88;;;1.10;;
57389;SDS011;43217;52.694;6.214;2022-08-05T07:34:40;1.70;;;1.02;;
57389;SDS011;43217;52.694;6.214;2022-08-05T07:37:06;2.85;;;1.10;;
57389;SDS011;43217;52.694;6.214;2022-08-05T07:39:32;2.70;;;1.10;;
57389;SDS011;43217;52.694;6.214;2022-08-05T07:41:58;2.63;;;1.13;;
57389;SDS011;43217;52.694;6.214;2022-08-05T07:44:23;2.45;;;1.20;;
57389;SDS011;43217;52.694;6.214;2022-08-05T07:46:49;2.03;;;1.13;;
57389;SDS011;43217;52.694;6.214;2022-08-05T07:49:15;1.48;;;0.95;;
57389;SDS011;43217;52.694;6.214;2022-08-05T07:51:41;1.10;;;1.00;;
57389;SDS011;43217;52.694;6.214;2022-08-05T07:54:07;2.17;;;1.40;;
57389;SDS011;43217;52.694;6.214;2022-08-05T07:56:33;1.25;;;0.95;;
57389;SDS011;43217;52.694;6.214;2022-08-05T07:58:58;2.58;;;1.00;;
57389;SDS011;43217;52.694;6.214;2022-08-05T08:01:24;2.47;;;0.90;;
57389;SDS011;43217;52.694;6.214;2022-08-05T08:03:51;2.47;;;1.00;;
57389;SDS011;43217;52.694;6.214;2022-08-05T08:06:18;1.67;;;0.90;;
57389;SDS011;43217;52.694;6.214;2022-08-05T08:08:44;2.92;;;1.02;;
57389;SDS011;43217;52.694;6.214;2022-08-05T08:11:09;2.90;;;1.08;;
57389;SDS011;43217;52.694;6.214;2022-08-05T08:13:35;5.00;;;1.00;;
57389;SDS011;43217;52.694;6.214;2022-08-05T08:16:00;2.10;;;0.90;;
57389;SDS011;43217;52.694;6.214;2022-08-05T08:18:26;1.50;;;0.90;;
57389;SDS011;43217;52.694;6.214;2022-08-05T08:20:52;1.77;;;1.00;;
57389;SDS011;43217;52.694;6.214;2022-08-05T08:23:17;1.07;;;0.90;;
57389;SDS011;43217;52.694;6.214;2022-08-05T08:25:43;1.83;;;0.70;;
57389;SDS011;43217;52.694;6.214;2022-08-05T08:28:10;2.08;;;0.70;;
57389;SDS011;43217;52.694;6.214;2022-08-05T08:30:35;1.20;;;0.70;;
57389;SDS011;43217;52.694;6.214;2022-08-05T08:33:05;1.87;;;0.70;;
57389;SDS011;43217;52.694;6.214;2022-08-05T08:35:32;3.45;;;0.88;;
57389;SDS011;43217;52.694;6.214;2022-08-05T08:37:58;2.43;;;0.50;;
57389;SDS011;43217;52.694;6.214;2022-08-05T08:40:23;2.20;;;0.73;;
57389;SDS011;43217;52.694;6.214;2022-08-05T08:42:50;1.85;;;0.80;;
57389;SDS011;43217;52.694;6.214;2022-08-05T08:45:19;1.48;;;0.77;;
57389;SDS011;43217;52.694;6.214;2022-08-05T08:47:46;1.55;;;0.95;;
57389;SDS011;43217;52.694;6.214;2022-08-05T08:50:15;1.45;;;0.75;;
57389;SDS011;43217;52.694;6.214;2022-08-05T08:52:52;2.38;;;0.60;;
57389;SDS011;43217;52.694;6.214;2022-08-05T08:55:20;1.38;;;0.77;;
57389;SDS011;43217;52.694;6.214;2022-08-05T08:57:46;1.35;;;0.68;;
57389;SDS011;43217;52.694;6.214;2022-08-05T09:00:13;1.85;;;0.60;;
57389;SDS011;43217;52.694;6.214;2022-08-05T09:02:38;1.48;;;0.60;;
57389;SDS011;43217;52.694;6.214;2022-08-05T09:05:05;0.75;;;0.57;;
57389;SDS011;43217;52.694;6.214;2022-08-05T09:07:31;1.08;;;0.60;;
57389;SDS011;43217;52.694;6.214;2022-08-05T09:09:56;1.00;;;0.43;;
57389;SDS011;43217;52.694;6.214;2022-08-05T09:12:22;3.20;;;1.77;;
57389;SDS011;43217;52.694;6.214;2022-08-05T09:14:48;0.40;;;0.30;;
57389;SDS011;43217;52.694;6.214;2022-08-05T09:17:13;0.60;;;0.40;;
57389;SDS011;43217;52.694;6.214;2022-08-05T09:19:39;1.65;;;0.55;;
57389;SDS011;43217;52.694;6.214;2022-08-05T09:22:05;0.95;;;0.40;;
57389;SDS011;43217;52.694;6.214;2022-08-05T09:24:32;1.75;;;0.45;;
57389;SDS011;43217;52.694;6.214;2022-08-05T09:27:00;1.58;;;0.50;;
57389;SDS011;43217;52.694;6.214;2022-08-05T09:29:41;2.57;;;0.33;;
57389;SDS011;43217;52.694;6.214;2022-08-05T09:32:10;0.65;;;0.40;;
57389;SDS011;43217;52.694;6.214;2022-08-05T09:34:49;1.60;;;0.50;;
57389;SDS011;43217;52.694;6.214;2022-08-05T09:37:21;1.48;;;0.57;;
57389;SDS011;43217;52.694;6.214;2022-08-05T09:39:47;2.15;;;0.60;;
57389;SDS011;43217;52.694;6.214;2022-08-05T09:42:17;1.63;;;0.60;;
57389;SDS011;43217;52.694;6.214;2022-08-05T09:44:45;0.80;;;0.68;;
57389;SDS011;43217;52.694;6.214;2022-08-05T09:47:13;1.45;;;0.40;;
57389;SDS011;43217;52.694;6.214;2022-08-05T09:49:41;1.35;;;0.63;;
57389;SDS011;43217;52.694;6.214;2022-08-05T09:52:21;0.70;;;0.40;;
57389;SDS011;43217;52.694;6.214;2022-08-05T09:54:54;1.70;;;0.43;;
57389;SDS011;43217;52.694;6.214;2022-08-05T10:00:12;1.55;;;0.55;;
57389;SDS011;43217;52.694;6.214;2022-08-05T10:02:49;0.63;;;0.30;;
57389;SDS011;43217;52.694;6.214;2022-08-05T10:05:25;0.57;;;0.43;;
57389;SDS011;43217;52.694;6.214;2022-08-05T10:07:59;1.50;;;0.52;;
57389;SDS011;43217;52.694;6.214;2022-08-05T10:13:08;1.38;;;0.40;;
57389;SDS011;43217;52.694;6.214;2022-08-05T10:15:35;0.82;;;0.30;;
57389;SDS011;43217;52.694;6.214;2022-08-05T10:20:31;0.47;;;0.38;;
57389;SDS011;43217;52.694;6.214;2022-08-05T10:22:58;0.80;;;0.22;;
57389;SDS011;43217;52.694;6.214;2022-08-05T10:25:24;0.95;;;0.30;;
57389;SDS011;43217;52.694;6.214;2022-08-05T10:27:50;0.83;;;0.20;;
57389;SDS011;43217;52.694;6.214;2022-08-05T10:30:17;1.45;;;0.40;;
57389;SDS011;43217;52.694;6.214;2022-08-05T10:32:44;1.40;;;0.50;;
57389;SDS011;43217;52.694;6.214;2022-08-05T10:35:11;2.03;;;0.40;;
57389;SDS011;43217;52.694;6.214;2022-08-05T10:37:37;1.63;;;0.57;;
57389;SDS011;43217;52.694;6.214;2022-08-05T10:40:04;1.45;;;0.30;;
57389;SDS011;43217;52.694;6.214;2022-08-05T10:42:35;0.60;;;0.30;;
57389;SDS011;43217;52.694;6.214;2022-08-05T10:45:03;1.13;;;0.30;;
57389;SDS011;43217;52.694;6.214;2022-08-05T10:47:30;1.40;;;0.35;;
57389;SDS011;43217;52.694;6.214;2022-08-05T10:50:05;0.60;;;0.40;;
57389;SDS011;43217;52.694;6.214;2022-08-05T10:55:07;1.52;;;0.25;;
57389;SDS011;43217;52.694;6.214;2022-08-05T10:57:35;0.28;;;0.20;;
57389;SDS011;43217;52.694;6.214;2022-08-05T11:00:09;1.05;;;0.43;;
57389;SDS011;43217;52.694;6.214;2022-08-05T11:02:36;1.17;;;0.47;;
57389;SDS011;43217;52.694;6.214;2022-08-05T11:05:04;0.50;;;0.33;;
57389;SDS011;43217;52.694;6.214;2022-08-05T11:07:34;0.98;;;0.30;;
57389;SDS011;43217;52.694;6.214;2022-08-05T11:10:23;1.50;;;0.30;;
57389;SDS011;43217;52.694;6.214;2022-08-05T11:12:49;0.82;;;0.30;;
57389;SDS011;43217;52.694;6.214;2022-08-05T11:17:54;1.50;;;0.45;;
57389;SDS011;43217;52.694;6.214;2022-08-05T11:20:33;1.10;;;0.30;;
57389;SDS011;43217;52.694;6.214;2022-08-05T11:26:38;0.85;;;0.30;;
57389;SDS011;43217;52.694;6.214;2022-08-05T11:28:49;0.25;;;0.25;;
57389;SDS011;43217;52.694;6.214;2022-08-05T11:36:16;1.17;;;0.32;;
57389;SDS011;43217;52.694;6.214;2022-08-05T11:41:15;1.20;;;0.30;;
57389;SDS011;43217;52.694;6.214;2022-08-05T11:46:17;1.48;;;0.73;;
57389;SDS011;43217;52.694;6.214;2022-08-05T11:48:49;1.52;;;0.30;;
57389;SDS011;43217;52.694;6.214;2022-08-05T11:51:15;0.43;;;0.30;;
57389;SDS011;43217;52.694;6.214;2022-08-05T11:53:40;0.77;;;0.23;;
57389;SDS011;43217;52.694;6.214;2022-08-05T11:56:06;0.40;;;0.20;;
57389;SDS011;43217;52.694;6.214;2022-08-05T11:58:36;0.80;;;0.63;;
57389;SDS011;43217;52.694;6.214;2022-08-05T12:01:10;2.50;;;0.38;;
57389;SDS011;43217;52.694;6.214;2022-08-05T12:03:55;1.13;;;0.50;;
57389;SDS011;43217;52.694;6.214;2022-08-05T12:06:21;0.68;;;0.30;;
57389;SDS011;43217;52.694;6.214;2022-08-05T12:08:49;0.70;;;0.30;;
57389;SDS011;43217;52.694;6.214;2022-08-05T12:11:18;1.25;;;0.43;;
57389;SDS011;43217;52.694;6.214;2022-08-05T12:14:00;1.00;;;0.30;;
57389;SDS011;43217;52.694;6.214;2022-08-05T12:16:36;1.45;;;0.30;;
57389;SDS011;43217;52.694;6.214;2022-08-05T12:19:07;1.05;;;0.30;;
57389;SDS011;43217;52.694;6.214;2022-08-05T12:21:40;0.95;;;0.38;;
57389;SDS011;43217;52.694;6.214;2022-08-05T12:24:09;0.98;;;0.30;;
57389;SDS011;43217;52.694;6.214;2022-08-05T12:26:48;0.80;;;0.47;;
57389;SDS011;43217;52.694;6.214;2022-08-05T12:29:22;0.32;;;0.30;;
57389;SDS011;43217;52.694;6.214;2022-08-05T12:31:52;1.23;;;0.35;;
57389;SDS011;43217;52.694;6.214;2022-08-05T12:34:20;0.70;;;0.30;;
57389;SDS011;43217;52.694;6.214;2022-08-05T12:36:50;1.38;;;0.40;;
57389;SDS011;43217;52.694;6.214;2022-08-05T12:39:17;0.98;;;0.40;;
57389;SDS011;43217;52.694;6.214;2022-08-05T12:41:43;0.73;;;0.30;;
57389;SDS011;43217;52.694;6.214;2022-08-05T12:44:10;0.38;;;0.30;;
57389;SDS011;43217;52.694;6.214;2022-08-05T12:46:38;3.55;;;0.40;;
57389;SDS011;43217;52.694;6.214;2022-08-05T12:51:48;0.30;;;0.20;;
57389;SDS011;43217;52.694;6.214;2022-08-05T12:56:52;0.98;;;0.35;;
57389;SDS011;43217;52.694;6.214;2022-08-05T12:59:29;1.42;;;0.50;;
57389;SDS011;43217;52.694;6.214;2022-08-05T13:04:27;1.08;;;0.40;;
57389;SDS011;43217;52.694;6.214;2022-08-05T13:06:56;1.17;;;0.30;;
57389;SDS011;43217;52.694;6.214;2022-08-05T13:09:23;0.63;;;0.30;;
57389;SDS011;43217;52.694;6.214;2022-08-05T13:11:49;2.20;;;0.75;;
57389;SDS011;43217;52.694;6.214;2022-08-05T13:14:22;1.08;;;0.40;;
57389;SDS011;43217;52.694;6.214;2022-08-05T13:16:55;0.43;;;0.30;;
57389;SDS011;43217;52.694;6.214;2022-08-05T13:19:26;0.75;;;0.30;;
57389;SDS011;43217;52.694;6.214;2022-08-05T13:21:53;1.90;;;0.40;;
57389;SDS011;43217;52.694;6.214;2022-08-05T13:24:20;0.70;;;0.35;;
57389;SDS011;43217;52.694;6.214;2022-08-05T13:26:47;0.98;;;0.40;;
57389;SDS011;43217;52.694;6.214;2022-08-05T13:29:14;0.73;;;0.30;;
57389;SDS011;43217;52.694;6.214;2022-08-05T13:31:40;0.73;;;0.40;;
57389;SDS011;43217;52.694;6.214;2022-08-05T13:34:07;0.70;;;0.43;;
57389;SDS011;43217;52.694;6.214;2022-08-05T13:36:34;1.00;;;0.30;;
57389;SDS011;43217;52.694;6.214;2022-08-05T13:39:01;0.82;;;0.43;;
57389;SDS011;43217;52.694;6.214;2022-08-05T13:41:28;1.98;;;0.45;;
57389;SDS011;43217;52.694;6.214;2022-08-05T13:43:54;1.02;;;0.30;;
57389;SDS011;43217;52.694;6.214;2022-08-05T13:46:22;1.50;;;0.40;;
57389;SDS011;43217;52.694;6.214;2022-08-05T13:48:48;1.65;;;0.35;;
57389;SDS011;43217;52.694;6.214;2022-08-05T13:51:15;0.90;;;0.30;;
57389;SDS011;43217;52.694;6.214;2022-08-05T13:53:49;1.00;;;0.40;;
57389;SDS011;43217;52.694;6.214;2022-08-05T13:56:14;0.22;;;0.20;;
57389;SDS011;43217;52.694;6.214;2022-08-05T13:58:40;1.05;;;0.28;;
57389;SDS011;43217;52.694;6.214;2022-08-05T14:01:05;1.02;;;0.45;;
57389;SDS011;43217;52.694;6.214;2022-08-05T14:03:31;0.60;;;0.20;;
57389;SDS011;43217;52.694;6.214;2022-08-05T14:05:57;1.00;;;0.22;;
57389;SDS011;43217;52.694;6.214;2022-08-05T14:08:24;0.88;;;0.38;;
57389;SDS011;43217;52.694;6.214;2022-08-05T14:10:50;0.10;;;0.10;;
57389;SDS011;43217;52.694;6.214;2022-08-05T14:13:15;0.65;;;0.38;;
57389;SDS011;43217;52.694;6.214;2022-08-05T14:15:41;0.73;;;0.30;;
57389;SDS011;43217;52.694;6.214;2022-08-05T14:18:07;2.05;;;0.30;;
57389;SDS011;43217;52.694;6.214;2022-08-05T14:20:33;3.08;;;0.63;;
57389;SDS011;43217;52.694;6.214;2022-08-05T14:22:58;2.28;;;0.55;;
57389;SDS011;43217;52.694;6.214;2022-08-05T14:25:25;1.00;;;0.50;;
57389;SDS011;43217;52.694;6.214;2022-08-05T14:27:51;2.50;;;0.50;;
57389;SDS011;43217;52.694;6.214;2022-08-05T14:30:17;2.97;;;0.70;;
57389;SDS011;43217;52.694;6.214;2022-08-05T14:32:43;1.93;;;0.77;;
57389;SDS011;43217;52.694;6.214;2022-08-05T14:35:09;1.60;;;0.55;;
57389;SDS011;43217;52.694;6.214;2022-08-05T14:37:40;1.48;;;0.45;;
57389;SDS011;43217;52.694;6.214;2022-08-05T14:40:06;1.83;;;0.70;;
57389;SDS011;43217;52.694;6.214;2022-08-05T14:42:32;1.70;;;0.63;;
57389;SDS011;43217;52.694;6.214;2022-08-05T14:44:57;1.63;;;0.50;;
57389;SDS011;43217;52.694;6.214;2022-08-05T14:47:23;1.35;;;0.50;;
57389;SDS011;43217;52.694;6.214;2022-08-05T14:49:51;1.65;;;0.70;;
57389;SDS011;43217;52.694;6.214;2022-08-05T14:52:17;2.72;;;0.40;;
57389;SDS011;43217;52.694;6.214;2022-08-05T14:54:44;3.10;;;0.60;;
57389;SDS011;43217;52.694;6.214;2022-08-05T14:57:09;1.00;;;0.52;;
57389;SDS011;43217;52.694;6.214;2022-08-05T14:59:35;2.50;;;0.60;;
57389;SDS011;43217;52.694;6.214;2022-08-05T15:02:00;2.17;;;0.40;;
57389;SDS011;43217;52.694;6.214;2022-08-05T15:04:27;1.13;;;0.52;;
57389;SDS011;43217;52.694;6.214;2022-08-05T15:06:52;1.85;;;0.40;;
57389;SDS011;43217;52.694;6.214;2022-08-05T15:09:19;1.60;;;0.85;;
57389;SDS011;43217;52.694;6.214;2022-08-05T15:11:45;1.38;;;0.45;;
57389;SDS011;43217;52.694;6.214;2022-08-05T15:14:11;0.70;;;0.38;;
57389;SDS011;43217;52.694;6.214;2022-08-05T15:16:36;1.13;;;0.47;;
57389;SDS011;43217;52.694;6.214;2022-08-05T15:19:02;0.73;;;0.40;;
57389;SDS011;43217;52.694;6.214;2022-08-05T15:21:28;1.70;;;0.40;;
57389;SDS011;43217;52.694;6.214;2022-08-05T15:23:54;1.70;;;0.40;;
57389;SDS011;43217;52.694;6.214;2022-08-05T15:26:19;1.02;;;0.40;;
57389;SDS011;43217;52.694;6.214;2022-08-05T15:28:45;1.88;;;0.40;;
57389;SDS011;43217;52.694;6.214;2022-08-05T15:31:11;0.30;;;0.30;;
57389;SDS011;43217;52.694;6.214;2022-08-05T15:33:36;0.73;;;0.30;;
57389;SDS011;43217;52.694;6.214;2022-08-05T15:36:02;0.45;;;0.40;;
57389;SDS011;43217;52.694;6.214;2022-08-05T15:38:29;1.38;;;0.32;;
57389;SDS011;43217;52.694;6.214;2022-08-05T15:40:56;1.35;;;0.32;;